Time;durP1;ratioP1;P1;durP2;ratioP2;P2;SDS_P1;SDS_P2;PMS_P1;PMS_P2;Temp;Humidity;BMP_temperature;BMP_pressure;BME280_temperature;BME280_humidity;BME280_pressure;Samples;Min_cycle;Max_cycle;Signal;HPM_P1;HPM_P2
2022/07/25 00:00:47;;;;;;;;;;;;;;;;;;2203035;67;1193;-63
2022/07/25 00:03:23;;;;;;;;;;;;;;;;;;2202380;59;1300;-65
2022/07/25 00:05:56;;;;;;;;;;;;;;;;;;2202412;67;1937;-64
2022/07/25 00:08:29;;;;;;;;;;;;;;;;;;2202608;67;1210;-65
2022/07/25 00:11:02;;;;;;;;;;;;;;;;;;2202444;59;1360;-63
2022/07/25 01:27:59;;;;;;;;;;;;;;;;;;2215349;53;1865;-73
2022/07/25 01:30:32;;;;;;;;;;;;;;;;;;2205730;67;1100;-73
2022/07/25 01:33:05;;;;;;;;;;;;;;;;;;2206782;67;1121;-73
2022/07/25 01:35:38;;;;;;;;;;;;;;;;;;2206515;59;1403;-73
2022/07/25 01:38:11;;;;;;;;;;;;;;;;;;2210302;59;2000;-73
2022/07/25 02:50:08;;;;;;;;;;;;;;;;;;2405939;53;1881;-73
2022/07/25 02:52:42;;;;;;;;;;;;;;;;;;2204450;67;1719;-73
2022/07/25 02:55:15;;;;;;;;;;;;;;;;;;2204942;59;1268;-73
2022/07/25 02:57:48;;;;;;;;;;;;;;;;;;2206598;67;1208;-73
2022/07/25 03:00:21;;;;;;;;;;;;;;;;;;2206655;67;1257;-73
2022/07/25 03:02:54;;;;;;;;;;;;;;;;;;2209890;59;2381;-73
2022/07/25 04:22:51;;;;;;;;;;;;;;;;;;2379222;53;2698;-54
2022/07/25 04:25:24;;;;;;;;;;;;;;;;;;2211528;59;1936;-55
2022/07/25 04:27:57;;;;;;;;;;;;;;;;;;2210753;59;1303;-54
2022/07/25 04:30:30;;;;;;;;;;;;;;;;;;2210693;67;1246;-54
2022/07/25 04:33:03;;;;;;;;;;;;;;;;;;2211740;59;1205;-54
2022/07/25 04:46:22;;;;;;;;;;;;;;;;;;2308974;53;2550;-65
2022/07/25 04:48:55;;;;;;;;;;;;;;;;;;2205704;59;1398;-63
2022/07/25 04:51:28;;;;;;;;;;;;;;;;;;2206145;59;1165;-65
2022/07/25 04:54:01;;;;;;;;;;;;;;;;;;2206080;59;1262;-65
2022/07/25 04:56:35;;;;;;;;;;;;;;;;;;2203845;67;1188;-63
2022/07/25 04:59:08;;;;;;;;;;;;;;;;;;2206464;67;1136;-65
2022/07/25 05:01:44;;;;;;;;;;;;;;;;;;2205705;67;1135;-64
2022/07/25 05:04:17;;;;;;;;;;;;;;;;;;2206055;59;1222;-65
2022/07/25 05:06:50;;;;;;;;;;;;;;;;;;2207203;67;1978;-65
2022/07/25 05:09:23;;;;;;;;;;;;;;;;;;2206789;67;1188;-65
2022/07/25 05:11:56;;;;;;;;;;;;;;;;;;2206599;59;1404;-63
2022/07/25 05:14:29;;;;;;;;;;;;;;;;;;2207642;67;1131;-64
2022/07/25 05:17:05;;;;;;;;;;;;;;;;;;2206553;59;2062;-63
2022/07/25 05:19:38;;;;;;;;;;;;;;;;;;2207177;59;1148;-65
2022/07/25 05:22:12;;;;;;;;;;;;;;;;;;2206997;67;1033;-65
2022/07/25 05:24:45;;;;;;;;;;;;;;;;;;2206724;67;1290;-64
2022/07/25 05:27:18;;;;;;;;;;;;;;;;;;2205604;67;1983;-63
2022/07/25 05:29:51;;;;;;;;;;;;;;;;;;2206474;67;1243;-65
2022/07/25 05:32:27;;;;;;;;;;;;;;;;;;2206283;67;1157;-63
2022/07/25 05:35:00;;;;;;;;;;;;;;;;;;2205892;67;1292;-65
2022/07/25 05:37:33;;;;;;;;;;;;;;;;;;2206988;59;2019;-63
2022/07/25 05:40:07;;;;;;;;;;;;;;;;;;2206058;67;1123;-64
2022/07/25 05:42:41;;;;;;;;;;;;;;;;;;2206952;67;1270;-65
2022/07/25 05:45:14;;;;;;;;;;;;;;;;;;2206315;59;1270;-65
2022/07/25 05:47:50;;;;;;;;;;;;;;;;;;2205585;67;1937;-65
2022/07/25 05:50:23;;;;;;;;;;;;;;;;;;2202274;67;1688;-65
2022/07/25 05:52:56;;;;;;;;;;;;;;;;;;2206898;67;1223;-63
2022/07/25 05:55:29;;;;;;;;;;;;;;;;;;2206909;67;1247;-64
2022/07/25 05:58:02;;;;;;;;;;;;;;;;;;2205930;67;1208;-64
2022/07/25 06:00:35;;;;;;;;;;;;;;;;;;2207085;67;1239;-64
2022/07/25 06:03:11;;;;;;;;;;;;;;;;;;2206100;59;1201;-64
2022/07/25 06:05:45;;;;;;;;;;;;;;;;;;2202776;67;1935;-65
2022/07/25 06:08:18;;;;;;;;;;;;;;;;;;2206223;67;1105;-63
2022/07/25 06:10:51;;;;;;;;;;;;;;;;;;2206237;59;1287;-65
2022/07/25 06:13:24;;;;;;;;;;;;;;;;;;2206221;67;1197;-65
2022/07/25 06:15:58;;;;;;;;;;;;;;;;;;2206279;59;2159;-66
2022/07/25 06:18:33;;;;;;;;;;;;;;;;;;2206455;67;1185;-65
2022/07/25 06:21:07;;;;;;;;;;;;;;;;;;2205914;59;1183;-65
2022/07/25 06:23:40;;;;;;;;;;;;;;;;;;2207211;67;1183;-64
2022/07/25 06:26:13;;;;;;;;;;;;;;;;;;2206110;59;2070;-66
2022/07/25 06:28:46;;;;;;;;;;;;;;;;;;2206366;67;1128;-65
2022/07/25 06:31:19;;;;;;;;;;;;;;;;;;2205634;67;1299;-66
2022/07/25 06:33:55;;;;;;;;;;;;;;;;;;2206299;67;1097;-65
2022/07/25 06:36:29;;;;;;;;;;;;;;;;;;2206260;59;1350;-65
2022/07/25 06:39:02;;;;;;;;;;;;;;;;;;2205904;59;1976;-65
2022/07/25 06:41:35;;;;;;;;;;;;;;;;;;2206282;67;1202;-65
2022/07/25 06:44:08;;;;;;;;;;;;;;;;;;2206035;67;1075;-65
2022/07/25 06:46:41;;;;;;;;;;;;;;;;;;2206040;59;1936;-65
2022/07/25 06:49:18;;;;;;;;;;;;;;;;;;2206191;67;1056;-66
2022/07/25 06:51:51;;;;;;;;;;;;;;;;;;2206858;67;1319;-65
2022/07/25 06:54:24;;;;;;;;;;;;;;;;;;2206781;67;1204;-65
2022/07/25 06:56:57;;;;;;;;;;;;;;;;;;2206509;67;1243;-65
2022/07/25 06:59:32;;;;;;;;;;;;;;;;;;2206150;67;1102;-64
2022/07/25 07:02:05;;;;;;;;;;;;;;;;;;2206504;67;1131;-64
2022/07/25 07:04:41;;;;;;;;;;;;;;;;;;2206896;59;1244;-64
2022/07/25 07:07:15;;;;;;;;;;;;;;;;;;2206401;67;1928;-65
2022/07/25 07:09:48;;;;;;;;;;;;;;;;;;2206592;67;1250;-64
2022/07/25 07:12:21;;;;;;;;;;;;;;;;;;2206546;59;1387;-64
2022/07/25 07:14:54;;;;;;;;;;;;;;;;;;2206622;59;2079;-63
2022/07/25 07:17:27;;;;;;;;;;;;;;;;;;2206222;67;1295;-66
2022/07/25 07:20:03;;;;;;;;;;;;;;;;;;2206268;67;1326;-63
2022/07/25 07:22:44;;;;;;;;;;;;;;;;;;2207015;67;1227;-66
2022/07/25 07:25:19;;;;;;;;;;;;;;;;;;2206318;67;1299;-64
2022/07/25 07:27:53;;;;;;;;;;;;;;;;;;2206129;67;1950;-65
2022/07/25 07:30:26;;;;;;;;;;;;;;;;;;2206556;67;1127;-63
2022/07/25 07:32:59;;;;;;;;;;;;;;;;;;2206522;67;1307;-66
2022/07/25 07:35:35;;;;;;;;;;;;;;;;;;2206801;59;1386;-65
2022/07/25 07:38:08;;;;;;;;;;;;;;;;;;2206174;59;2035;-66
2022/07/25 07:40:41;;;;;;;;;;;;;;;;;;2206998;67;1206;-63
2022/07/25 07:43:15;;;;;;;;;;;;;;;;;;2206485;67;1058;-66
2022/07/25 07:45:48;;;;;;;;;;;;;;;;;;2206843;59;1251;-65
2022/07/25 07:48:21;;;;;;;;;;;;;;;;;;2205868;67;1933;-64
2022/07/25 07:50:57;;;;;;;;;;;;;;;;;;2206439;67;1183;-66
2022/07/25 07:56:17;;;;;;;;;;;;;;;;;;2206074;67;2463;-65
2022/07/25 07:58:50;;;;;;;;;;;;;;;;;;2206215;67;1133;-64
2022/07/25 08:01:24;;;;;;;;;;;;;;;;;;2206341;67;1295;-66
2022/07/25 08:03:57;;;;;;;;;;;;;;;;;;2205819;59;1224;-64
2022/07/25 08:06:33;;;;;;;;;;;;;;;;;;2206473;67;1932;-66
2022/07/25 08:09:06;;;;;;;;;;;;;;;;;;2206451;67;1208;-66
2022/07/25 08:11:40;;;;;;;;;;;;;;;;;;2206907;59;1446;-66
2022/07/25 08:14:13;;;;;;;;;;;;;;;;;;2207133;67;1069;-65
2022/07/25 08:16:46;;;;;;;;;;;;;;;;;;2206891;59;2126;-67
2022/07/25 08:19:19;;;;;;;;;;;;;;;;;;2207005;67;1106;-66
2022/07/25 08:21:55;;;;;;;;;;;;;;;;;;2207137;59;1165;-66
2022/07/25 08:24:28;;;;;;;;;;;;;;;;;;2207338;67;1040;-66
2022/07/25 08:27:01;;;;;;;;;;;;;;;;;;2206921;67;1930;-67
2022/07/25 08:29:34;;;;;;;;;;;;;;;;;;2206892;67;1299;-66
2022/07/25 08:32:08;;;;;;;;;;;;;;;;;;2206578;67;1156;-66
2022/07/25 08:34:41;;;;;;;;;;;;;;;;;;2206846;67;1945;-65
2022/07/25 08:37:17;;;;;;;;;;;;;;;;;;2206861;59;2428;-66
2022/07/25 08:39:50;;;;;;;;;;;;;;;;;;2207161;67;1195;-65
2022/07/25 08:42:23;;;;;;;;;;;;;;;;;;2205646;67;1260;-66
2022/07/25 08:44:59;;;;;;;;;;;;;;;;;;2206608;67;1346;-65
2022/07/25 08:47:33;;;;;;;;;;;;;;;;;;2206715;67;1936;-66
2022/07/25 08:50:08;;;;;;;;;;;;;;;;;;2206559;67;1133;-66
2022/07/25 08:52:46;;;;;;;;;;;;;;;;;;2206518;67;1207;-66
2022/07/25 08:55:21;;;;;;;;;;;;;;;;;;2206655;67;1195;-66
2022/07/25 08:57:55;;;;;;;;;;;;;;;;;;2206436;67;1100;-66
2022/07/25 09:00:29;;;;;;;;;;;;;;;;;;2206810;67;1117;-66
2022/07/25 09:03:05;;;;;;;;;;;;;;;;;;2206162;59;1271;-66
2022/07/25 09:05:39;;;;;;;;;;;;;;;;;;2206485;67;1272;-65
2022/07/25 09:08:16;;;;;;;;;;;;;;;;;;2206606;67;1928;-65
2022/07/25 09:10:50;;;;;;;;;;;;;;;;;;2206643;59;1426;-65
2022/07/25 09:13:23;;;;;;;;;;;;;;;;;;2206677;59;1698;-67
2022/07/25 09:15:59;;;;;;;;;;;;;;;;;;2206694;59;1939;-67
2022/07/25 09:18:32;;;;;;;;;;;;;;;;;;2205977;67;1058;-67
2022/07/25 09:21:05;;;;;;;;;;;;;;;;;;2206327;67;1065;-64
2022/07/25 09:23:41;;;;;;;;;;;;;;;;;;2206799;67;1255;-67
2022/07/25 09:26:15;;;;;;;;;;;;;;;;;;2206527;67;1255;-66
2022/07/25 09:28:50;;;;;;;;;;;;;;;;;;2206545;67;1941;-65
2022/07/25 09:31:23;;;;;;;;;;;;;;;;;;2206547;67;1170;-66
2022/07/25 09:33:59;;;;;;;;;;;;;;;;;;2206539;67;1274;-66
2022/07/25 09:36:34;;;;;;;;;;;;;;;;;;2205699;59;1416;-67
2022/07/25 09:39:10;;;;;;;;;;;;;;;;;;2205704;59;2007;-66
2022/07/25 09:41:43;;;;;;;;;;;;;;;;;;2206391;67;1205;-67
2022/07/25 09:44:21;;;;;;;;;;;;;;;;;;2206003;67;1236;-67
2022/07/25 09:46:54;;;;;;;;;;;;;;;;;;2206313;59;1938;-67
2022/07/25 09:49:28;;;;;;;;;;;;;;;;;;2206038;67;1268;-66
2022/07/25 09:52:01;;;;;;;;;;;;;;;;;;2205683;67;1299;-66
2022/07/25 09:54:37;;;;;;;;;;;;;;;;;;2206031;67;1273;-65
2022/07/25 09:57:10;;;;;;;;;;;;;;;;;;2205579;67;1313;-66
2022/07/25 09:59:44;;;;;;;;;;;;;;;;;;2205591;67;1091;-66
2022/07/25 10:02:23;;;;;;;;;;;;;;;;;;2205538;67;1160;-66
2022/07/25 10:05:01;;;;;;;;;;;;;;;;;;2207401;59;1281;-67
2022/07/25 10:07:38;;;;;;;;;;;;;;;;;;2205975;67;1938;-65
2022/07/25 10:10:21;;;;;;;;;;;;;;;;;;2205922;67;1212;-66
2022/07/25 10:13:05;;;;;;;;;;;;;;;;;;2207862;59;1709;-66
2022/07/25 10:15:42;;;;;;;;;;;;;;;;;;2206479;59;2043;-66
2022/07/25 10:18:16;;;;;;;;;;;;;;;;;;2206665;67;1153;-67
2022/07/25 10:20:50;;;;;;;;;;;;;;;;;;2207604;67;1184;-67
2022/07/25 10:23:25;;;;;;;;;;;;;;;;;;2207169;67;1241;-66
2022/07/25 10:26:08;;;;;;;;;;;;;;;;;;2206857;67;1290;-67
2022/07/25 10:28:43;;;;;;;;;;;;;;;;;;2207721;67;1982;-66
2022/07/25 10:31:20;;;;;;;;;;;;;;;;;;2206712;67;1178;-66
2022/07/25 10:33:55;;;;;;;;;;;;;;;;;;2207988;67;1247;-65
2022/07/25 10:36:32;;;;;;;;;;;;;;;;;;2207378;59;1429;-65
2022/07/25 10:39:10;;;;;;;;;;;;;;;;;;2206956;59;2033;-66
2022/07/25 10:41:51;;;;;;;;;;;;;;;;;;2207112;67;1272;-64
2022/07/25 10:44:24;;;;;;;;;;;;;;;;;;2207437;67;1121;-67
2022/07/25 11:53:44;;;;;;;;;;;;;;;;;;2324384;53;1883;-75
2022/07/25 11:56:18;;;;;;;;;;;;;;;;;;2206423;67;1151;-75
2022/07/25 11:58:58;;;;;;;;;;;;;;;;;;2207194;67;1219;-74
2022/07/25 12:01:36;;;;;;;;;;;;;;;;;;2207063;59;1258;-75
2022/07/25 12:04:10;;;;;;;;;;;;;;;;;;2208737;59;1243;-75
2022/07/25 12:09:21;;;;;;;;;;;;;;;;;;2206604;59;1935;-76
2022/07/25 12:12:03;;;;;;;;;;;;;;;;;;2208951;59;1355;-76
2022/07/25 12:14:43;;;;;;;;;;;;;;;;;;2209805;67;1175;-76
2022/07/25 12:17:17;;;;;;;;;;;;;;;;;;2208135;59;2216;-76
2022/07/25 12:19:50;;;;;;;;;;;;;;;;;;2206261;67;1220;-76
2022/07/25 12:22:23;;;;;;;;;;;;;;;;;;2205388;59;1238;-76
2022/07/25 12:24:59;;;;;;;;;;;;;;;;;;2206010;67;1241;-76
2022/07/25 12:27:33;;;;;;;;;;;;;;;;;;2205556;67;1935;-76
2022/07/25 12:30:07;;;;;;;;;;;;;;;;;;2205494;67;1038;-76
2022/07/25 12:32:40;;;;;;;;;;;;;;;;;;2205590;67;1209;-75
2022/07/25 12:35:15;;;;;;;;;;;;;;;;;;2205316;67;1094;-75
2022/07/25 12:37:48;;;;;;;;;;;;;;;;;;2205524;59;2022;-76
2022/07/25 12:40:24;;;;;;;;;;;;;;;;;;2205455;67;1236;-76
2022/07/25 12:42:58;;;;;;;;;;;;;;;;;;2205437;59;2279;-76
2022/07/25 12:45:31;;;;;;;;;;;;;;;;;;2205987;59;1269;-75
2022/07/25 12:48:04;;;;;;;;;;;;;;;;;;2205059;59;2256;-75
2022/07/25 12:50:37;;;;;;;;;;;;;;;;;;2204798;67;1195;-75
2022/07/25 12:53:12;;;;;;;;;;;;;;;;;;2205033;59;2125;-76
2022/07/25 12:55:48;;;;;;;;;;;;;;;;;;2205253;67;1210;-76
2022/07/25 12:58:21;;;;;;;;;;;;;;;;;;2204873;59;1169;-76
2022/07/25 13:00:54;;;;;;;;;;;;;;;;;;2205149;59;2201;-76
2022/07/25 13:03:27;;;;;;;;;;;;;;;;;;2204464;59;1295;-76
2022/07/25 13:06:00;;;;;;;;;;;;;;;;;;2204948;59;2279;-76
2022/07/25 13:08:36;;;;;;;;;;;;;;;;;;2202116;59;1975;-76
2022/07/25 13:11:12;;;;;;;;;;;;;;;;;;2204943;59;2166;-75
2022/07/25 13:13:45;;;;;;;;;;;;;;;;;;2205140;59;2065;-76
2022/07/25 13:16:18;;;;;;;;;;;;;;;;;;2205206;59;2340;-76
2022/07/25 13:18:51;;;;;;;;;;;;;;;;;;2205063;59;1320;-75
2022/07/25 13:21:24;;;;;;;;;;;;;;;;;;2205347;67;1241;-75
2022/07/25 13:23:58;;;;;;;;;;;;;;;;;;2205019;59;1418;-75
2022/07/25 13:26:34;;;;;;;;;;;;;;;;;;2204580;59;2172;-76
2022/07/25 13:29:10;;;;;;;;;;;;;;;;;;2204830;59;2510;-75
2022/07/25 13:31:43;;;;;;;;;;;;;;;;;;2205357;59;2149;-76
2022/07/25 13:34:16;;;;;;;;;;;;;;;;;;2204793;59;2287;-75
2022/07/25 13:36:49;;;;;;;;;;;;;;;;;;2204518;59;1360;-77
2022/07/25 13:39:22;;;;;;;;;;;;;;;;;;2201447;59;2014;-75
2022/07/25 13:41:58;;;;;;;;;;;;;;;;;;2204858;59;2250;-75
2022/07/25 13:44:31;;;;;;;;;;;;;;;;;;2204855;59;1249;-75
2022/07/25 13:47:05;;;;;;;;;;;;;;;;;;2204656;59;2273;-76
2022/07/25 13:49:39;;;;;;;;;;;;;;;;;;2204801;59;1984;-76
2022/07/25 13:52:12;;;;;;;;;;;;;;;;;;2205189;59;1028;-77
2022/07/25 13:54:45;;;;;;;;;;;;;;;;;;2204706;59;2262;-76
2022/07/25 13:57:21;;;;;;;;;;;;;;;;;;2205359;59;2199;-76
2022/07/25 13:59:54;;;;;;;;;;;;;;;;;;2205491;59;1416;-75
2022/07/25 14:02:28;;;;;;;;;;;;;;;;;;2205265;59;1372;-77
2022/07/25 14:05:01;;;;;;;;;;;;;;;;;;2204947;59;1313;-77
2022/07/25 14:07:35;;;;;;;;;;;;;;;;;;2204730;59;1205;-76
2022/07/25 14:10:09;;;;;;;;;;;;;;;;;;2205155;59;1992;-76
2022/07/25 14:12:45;;;;;;;;;;;;;;;;;;2204797;59;1679;-77
2022/07/25 14:15:18;;;;;;;;;;;;;;;;;;2204979;59;2356;-74
2022/07/25 14:17:51;;;;;;;;;;;;;;;;;;2205086;59;2274;-76
2022/07/25 14:20:24;;;;;;;;;;;;;;;;;;2205762;59;2181;-76
2022/07/25 14:22:57;;;;;;;;;;;;;;;;;;2205640;59;1223;-77
2022/07/25 14:25:30;;;;;;;;;;;;;;;;;;2205715;59;1198;-76
2022/07/25 14:28:06;;;;;;;;;;;;;;;;;;2205801;67;1292;-76
2022/07/25 14:30:39;;;;;;;;;;;;;;;;;;2205746;59;1172;-76
2022/07/25 14:33:13;;;;;;;;;;;;;;;;;;2205465;67;1205;-76
2022/07/25 14:35:46;;;;;;;;;;;;;;;;;;2205381;59;1257;-76
2022/07/25 14:38:19;;;;;;;;;;;;;;;;;;2205647;59;2296;-76
2022/07/25 14:40:52;;;;;;;;;;;;;;;;;;2205469;59;1212;-75
2022/07/25 14:43:28;;;;;;;;;;;;;;;;;;2205567;67;1136;-76
2022/07/25 14:46:01;;;;;;;;;;;;;;;;;;2205269;59;1182;-76
2022/07/25 14:48:34;;;;;;;;;;;;;;;;;;2205537;67;1941;-76
2022/07/25 14:51:08;;;;;;;;;;;;;;;;;;2205379;59;1208;-76
2022/07/25 14:53:41;;;;;;;;;;;;;;;;;;2205191;67;1210;-77
2022/07/25 14:56:14;;;;;;;;;;;;;;;;;;2205543;59;1296;-76
2022/07/25 14:58:50;;;;;;;;;;;;;;;;;;2205292;67;1369;-75
2022/07/25 15:01:24;;;;;;;;;;;;;;;;;;2204951;67;1233;-76
2022/07/25 15:03:57;;;;;;;;;;;;;;;;;;2205418;59;1727;-77
2022/07/25 15:06:30;;;;;;;;;;;;;;;;;;2205247;67;1156;-77
2022/07/25 15:09:04;;;;;;;;;;;;;;;;;;2205306;59;1987;-76
2022/07/25 15:11:37;;;;;;;;;;;;;;;;;;2206054;59;1358;-76
2022/07/25 15:14:13;;;;;;;;;;;;;;;;;;2205616;67;1097;-76
2022/07/25 15:16:46;;;;;;;;;;;;;;;;;;2205614;59;1793;-76
2022/07/25 15:19:19;;;;;;;;;;;;;;;;;;2206229;67;1161;-76
2022/07/25 15:21:52;;;;;;;;;;;;;;;;;;2205960;67;1175;-75
2022/07/25 15:24:25;;;;;;;;;;;;;;;;;;2206000;67;1290;-76
2022/07/25 15:26:59;;;;;;;;;;;;;;;;;;2205833;67;1280;-76
2022/07/25 15:29:34;;;;;;;;;;;;;;;;;;2206019;67;1938;-77
2022/07/25 15:32:08;;;;;;;;;;;;;;;;;;2205642;67;1116;-76
2022/07/25 15:34:41;;;;;;;;;;;;;;;;;;2206003;67;1286;-76
2022/07/25 15:37:14;;;;;;;;;;;;;;;;;;2205986;59;2005;-76
2022/07/25 15:39:47;;;;;;;;;;;;;;;;;;2205787;59;1256;-76
2022/07/25 15:42:20;;;;;;;;;;;;;;;;;;2205994;67;1189;-76
2022/07/25 15:44:56;;;;;;;;;;;;;;;;;;2205414;67;1185;-76
2022/07/25 15:47:29;;;;;;;;;;;;;;;;;;2205811;67;1207;-77
2022/07/25 15:50:02;;;;;;;;;;;;;;;;;;2205026;67;1916;-77
2022/07/25 15:52:35;;;;;;;;;;;;;;;;;;2205723;67;1095;-76
2022/07/25 15:55:09;;;;;;;;;;;;;;;;;;2205247;59;1190;-76
2022/07/25 15:57:42;;;;;;;;;;;;;;;;;;2205599;59;1283;-76
2022/07/25 16:00:18;;;;;;;;;;;;;;;;;;2205103;59;1152;-76
2022/07/25 16:02:51;;;;;;;;;;;;;;;;;;2205224;59;1367;-76
2022/07/25 16:05:24;;;;;;;;;;;;;;;;;;2205582;67;1295;-77
2022/07/25 16:07:59;;;;;;;;;;;;;;;;;;2204873;59;1162;-76
2022/07/25 16:10:33;;;;;;;;;;;;;;;;;;2205924;59;1936;-76
2022/07/25 16:13:06;;;;;;;;;;;;;;;;;;2206930;59;1195;-77
2022/07/25 16:15:43;;;;;;;;;;;;;;;;;;2206972;59;1928;-76
2022/07/25 16:18:16;;;;;;;;;;;;;;;;;;2206612;59;1236;-76
2022/07/25 16:20:49;;;;;;;;;;;;;;;;;;2206523;67;1242;-76
2022/07/25 16:23:24;;;;;;;;;;;;;;;;;;2206177;67;1238;-76
2022/07/25 16:25:57;;;;;;;;;;;;;;;;;;2204783;67;1228;-76
2022/07/25 16:28:31;;;;;;;;;;;;;;;;;;2207639;67;1239;-76
2022/07/25 16:31:07;;;;;;;;;;;;;;;;;;2205253;59;1928;-76
2022/07/25 16:33:40;;;;;;;;;;;;;;;;;;2207262;67;1266;-76
2022/07/25 16:36:13;;;;;;;;;;;;;;;;;;2202496;59;1933;-76
2022/07/25 16:38:47;;;;;;;;;;;;;;;;;;2206614;67;2054;-76
2022/07/25 16:41:21;;;;;;;;;;;;;;;;;;2206701;59;1143;-76
2022/07/25 16:43:54;;;;;;;;;;;;;;;;;;2205391;67;1234;-76
2022/07/25 16:46:30;;;;;;;;;;;;;;;;;;2206266;59;1258;-77
2022/07/25 16:49:03;;;;;;;;;;;;;;;;;;2205854;67;1987;-77
2022/07/25 16:51:36;;;;;;;;;;;;;;;;;;2206439;67;1243;-77
2022/07/25 16:54:09;;;;;;;;;;;;;;;;;;2206689;67;1155;-76
2022/07/25 16:56:42;;;;;;;;;;;;;;;;;;2206607;67;1225;-76
2022/07/25 16:59:15;;;;;;;;;;;;;;;;;;2206404;59;1044;-76
2022/07/25 17:01:51;;;;;;;;;;;;;;;;;;2205673;59;1359;-76
2022/07/25 17:04:24;;;;;;;;;;;;;;;;;;2202918;59;1494;-76
2022/07/25 17:06:58;;;;;;;;;;;;;;;;;;2206322;59;1268;-76
2022/07/25 17:09:31;;;;;;;;;;;;;;;;;;2210371;53;3745;-59
2022/07/25 17:12:04;;;;;;;;;;;;;;;;;;2204852;59;1247;-60
2022/07/25 17:14:38;;;;;;;;;;;;;;;;;;2204769;67;1308;-55
2022/07/25 17:17:14;;;;;;;;;;;;;;;;;;2203745;67;2288;-56
2022/07/25 17:19:47;;;;;;;;;;;;;;;;;;2202796;67;1203;-55
2022/07/25 17:22:20;;;;;;;;;;;;;;;;;;2203261;67;1105;-56
2022/07/25 17:24:53;;;;;;;;;;;;;;;;;;2204053;67;1212;-56
2022/07/25 17:27:26;;;;;;;;;;;;;;;;;;2203916;67;1260;-55
2022/07/25 17:29:59;;;;;;;;;;;;;;;;;;2203439;67;1939;-57
2022/07/25 17:32:35;;;;;;;;;;;;;;;;;;2204542;67;1206;-58
2022/07/25 17:35:09;;;;;;;;;;;;;;;;;;2202560;67;1116;-55
2022/07/25 17:37:42;;;;;;;;;;;;;;;;;;2203706;59;2042;-56
2022/07/25 17:40:15;;;;;;;;;;;;;;;;;;2203846;67;1206;-63
2022/07/25 17:42:48;;;;;;;;;;;;;;;;;;2203333;59;1169;-55
2022/07/25 17:45:21;;;;;;;;;;;;;;;;;;2204137;67;1248;-56
2022/07/25 17:47:57;;;;;;;;;;;;;;;;;;2203025;67;1160;-55
2022/07/25 17:50:30;;;;;;;;;;;;;;;;;;2203550;67;1940;-56
2022/07/25 17:53:03;;;;;;;;;;;;;;;;;;2203095;59;1082;-56
2022/07/25 17:55:37;;;;;;;;;;;;;;;;;;2203358;67;1224;-55
2022/07/25 17:58:10;;;;;;;;;;;;;;;;;;2203095;67;1098;-55
2022/07/25 18:00:43;;;;;;;;;;;;;;;;;;2203207;59;1298;-55
2022/07/25 18:03:19;;;;;;;;;;;;;;;;;;2203074;59;1373;-55
2022/07/25 18:05:52;;;;;;;;;;;;;;;;;;2202449;67;1236;-55
2022/07/25 18:08:29;;;;;;;;;;;;;;;;;;2202965;67;2070;-55
2022/07/25 18:11:02;;;;;;;;;;;;;;;;;;2202683;59;1932;-55
2022/07/25 18:13:36;;;;;;;;;;;;;;;;;;2203276;67;1181;-55
2022/07/25 18:16:10;;;;;;;;;;;;;;;;;;2202680;59;2078;-55
2022/07/25 18:18:46;;;;;;;;;;;;;;;;;;2203352;67;1220;-55
2022/07/25 18:21:19;;;;;;;;;;;;;;;;;;2202733;67;1220;-55
2022/07/25 18:23:52;;;;;;;;;;;;;;;;;;2202988;67;1222;-55
2022/07/25 18:26:27;;;;;;;;;;;;;;;;;;2202966;67;1385;-55
2022/07/25 18:29:00;;;;;;;;;;;;;;;;;;2202780;67;1330;-55
2022/07/25 18:31:33;;;;;;;;;;;;;;;;;;2203538;67;1939;-54
2022/07/25 18:34:09;;;;;;;;;;;;;;;;;;2202626;67;1104;-55
2022/07/25 18:36:42;;;;;;;;;;;;;;;;;;2203783;59;1366;-55
2022/07/25 18:39:15;;;;;;;;;;;;;;;;;;2202937;59;2019;-55
2022/07/25 18:41:48;;;;;;;;;;;;;;;;;;2203044;67;1302;-56
2022/07/25 18:44:21;;;;;;;;;;;;;;;;;;2202827;67;1265;-54
2022/07/25 18:46:55;;;;;;;;;;;;;;;;;;2203390;67;1133;-57
2022/07/25 18:49:31;;;;;;;;;;;;;;;;;;2203504;67;1265;-54
2022/07/25 18:52:04;;;;;;;;;;;;;;;;;;2203296;67;1930;-55
2022/07/25 18:54:37;;;;;;;;;;;;;;;;;;2203069;67;1036;-55
2022/07/25 18:57:10;;;;;;;;;;;;;;;;;;2202855;67;1147;-56
2022/07/25 18:59:43;;;;;;;;;;;;;;;;;;2202929;67;1270;-56
2022/07/25 19:02:16;;;;;;;;;;;;;;;;;;2203124;67;1197;-55
2022/07/25 19:04:52;;;;;;;;;;;;;;;;;;2203918;59;1322;-54
2022/07/25 19:07:27;;;;;;;;;;;;;;;;;;2203179;67;1220;-55
2022/07/25 19:10:00;;;;;;;;;;;;;;;;;;2203670;59;1929;-56
2022/07/25 19:12:33;;;;;;;;;;;;;;;;;;2203838;59;1384;-55
2022/07/25 19:15:07;;;;;;;;;;;;;;;;;;2204096;59;2091;-54
2022/07/25 19:17:40;;;;;;;;;;;;;;;;;;2204228;67;1168;-56
2022/07/25 19:20:16;;;;;;;;;;;;;;;;;;2203204;67;1217;-55
2022/07/25 19:22:50;;;;;;;;;;;;;;;;;;2202955;67;1250;-57
2022/07/25 19:25:23;;;;;;;;;;;;;;;;;;2203618;67;1235;-57
2022/07/25 19:27:56;;;;;;;;;;;;;;;;;;2202900;67;1264;-56
2022/07/25 19:30:29;;;;;;;;;;;;;;;;;;2203511;67;1924;-55
2022/07/25 19:33:02;;;;;;;;;;;;;;;;;;2203173;67;1409;-54
2022/07/25 19:35:38;;;;;;;;;;;;;;;;;;2203031;59;1408;-56
2022/07/25 19:38:12;;;;;;;;;;;;;;;;;;2202850;59;2115;-56
2022/07/25 19:40:45;;;;;;;;;;;;;;;;;;2203956;67;1274;-55
2022/07/25 19:43:18;;;;;;;;;;;;;;;;;;2206687;67;1166;-56
2022/07/25 19:45:51;;;;;;;;;;;;;;;;;;2211253;67;1196;-56
2022/07/25 19:48:25;;;;;;;;;;;;;;;;;;2206785;67;1091;-58
2022/07/25 19:51:01;;;;;;;;;;;;;;;;;;2202541;67;1991;-57
2022/07/25 19:53:34;;;;;;;;;;;;;;;;;;2203784;59;1298;-54
2022/07/25 19:56:08;;;;;;;;;;;;;;;;;;2202683;67;1043;-55
2022/07/25 19:58:41;;;;;;;;;;;;;;;;;;2202875;67;1256;-58
2022/07/25 20:01:15;;;;;;;;;;;;;;;;;;2203677;59;1310;-56
2022/07/25 20:03:48;;;;;;;;;;;;;;;;;;2203277;67;1306;-55
2022/07/25 20:06:24;;;;;;;;;;;;;;;;;;2202915;67;1236;-55
2022/07/25 20:08:57;;;;;;;;;;;;;;;;;;2203021;59;1161;-55
2022/07/25 20:11:30;;;;;;;;;;;;;;;;;;2203565;59;1928;-54
2022/07/25 20:14:03;;;;;;;;;;;;;;;;;;2202891;67;1220;-61
2022/07/25 20:16:37;;;;;;;;;;;;;;;;;;2202388;67;2046;-55
2022/07/25 20:19:12;;;;;;;;;;;;;;;;;;2203550;62;996;-60
2022/07/25 20:21:48;;;;;;;;;;;;;;;;;;2208466;53;2229;-73
2022/07/25 20:24:21;;;;;;;;;;;;;;;;;;2206271;67;1226;-73
2022/07/25 20:26:54;;;;;;;;;;;;;;;;;;2210722;59;1310;-74
2022/07/25 20:29:27;;;;;;;;;;;;;;;;;;2209743;67;1108;-74
2022/07/25 20:32:01;;;;;;;;;;;;;;;;;;2206418;59;2208;-73
2022/07/25 20:34:34;;;;;;;;;;;;;;;;;;2209157;59;1554;-73
2022/07/25 20:37:10;;;;;;;;;;;;;;;;;;2209266;53;2103;-65
2022/07/25 20:39:43;;;;;;;;;;;;;;;;;;2205460;67;1110;-65
2022/07/25 20:42:16;;;;;;;;;;;;;;;;;;2206268;67;1250;-66
2022/07/25 20:44:49;;;;;;;;;;;;;;;;;;2207557;67;1236;-66
2022/07/25 20:47:23;;;;;;;;;;;;;;;;;;2206783;67;1607;-66
2022/07/25 20:49:56;;;;;;;;;;;;;;;;;;2207201;59;1319;-66
2022/07/25 20:52:33;;;;;;;;;;;;;;;;;;2206943;67;1929;-66
2022/07/25 20:55:07;;;;;;;;;;;;;;;;;;2202804;67;1169;-66
2022/07/25 20:57:40;;;;;;;;;;;;;;;;;;2207431;67;1098;-66
2022/07/25 21:00:14;;;;;;;;;;;;;;;;;;2206804;67;1264;-65
2022/07/25 21:02:47;;;;;;;;;;;;;;;;;;2206366;59;1247;-66
2022/07/25 21:05:20;;;;;;;;;;;;;;;;;;2206958;67;1163;-65
2022/07/25 21:07:56;;;;;;;;;;;;;;;;;;2206365;67;1153;-65
2022/07/25 21:10:29;;;;;;;;;;;;;;;;;;2207237;67;1227;-65
2022/07/25 21:13:02;;;;;;;;;;;;;;;;;;2206076;67;1952;-66
2022/07/25 21:15:36;;;;;;;;;;;;;;;;;;2206963;59;1892;-66
2022/07/25 21:18:09;;;;;;;;;;;;;;;;;;2206795;67;1082;-66
2022/07/25 21:20:42;;;;;;;;;;;;;;;;;;2206185;67;1192;-66
2022/07/25 21:23:19;;;;;;;;;;;;;;;;;;2207395;67;1081;-66
2022/07/25 21:25:52;;;;;;;;;;;;;;;;;;2207083;67;1195;-66
2022/07/25 21:28:25;;;;;;;;;;;;;;;;;;2206815;67;1246;-65
2022/07/25 21:30:58;;;;;;;;;;;;;;;;;;2206879;67;1942;-66
2022/07/25 21:33:31;;;;;;;;;;;;;;;;;;2205817;67;1533;-66
2022/07/25 21:36:05;;;;;;;;;;;;;;;;;;2206467;59;1415;-65
2022/07/25 21:38:41;;;;;;;;;;;;;;;;;;2206253;59;2179;-66
2022/07/25 21:41:14;;;;;;;;;;;;;;;;;;2206959;67;1267;-65
2022/07/25 21:43:48;;;;;;;;;;;;;;;;;;2207479;67;1286;-66
2022/07/25 21:46:21;;;;;;;;;;;;;;;;;;2205970;67;1256;-64
2022/07/25 21:51:43;;;;;;;;;;;;;;;;;;2205636;67;1985;-66
2022/07/25 21:54:19;;;;;;;;;;;;;;;;;;2206290;67;1183;-65
2022/07/25 21:56:52;;;;;;;;;;;;;;;;;;2206150;67;1277;-66
2022/07/25 21:59:25;;;;;;;;;;;;;;;;;;2206493;67;1263;-65
2022/07/25 22:01:58;;;;;;;;;;;;;;;;;;2205443;59;2627;-64
2022/07/25 22:04:32;;;;;;;;;;;;;;;;;;2205333;59;1291;-66
2022/07/25 22:07:05;;;;;;;;;;;;;;;;;;2204954;59;1195;-63
2022/07/25 22:09:41;;;;;;;;;;;;;;;;;;2206155;67;1269;-66
2022/07/25 22:12:15;;;;;;;;;;;;;;;;;;2205757;59;1979;-66
2022/07/25 22:14:48;;;;;;;;;;;;;;;;;;2205844;67;1206;-65
2022/07/25 22:17:21;;;;;;;;;;;;;;;;;;2207177;59;2325;-66
2022/07/25 22:19:55;;;;;;;;;;;;;;;;;;2207699;67;1219;-66
2022/07/25 22:22:28;;;;;;;;;;;;;;;;;;2207134;67;1250;-65
2022/07/25 22:25:04;;;;;;;;;;;;;;;;;;2206321;67;1755;-64
2022/07/25 22:27:37;;;;;;;;;;;;;;;;;;2206114;67;1209;-65
2022/07/25 22:30:12;;;;;;;;;;;;;;;;;;2206875;67;1056;-63
2022/07/25 22:32:45;;;;;;;;;;;;;;;;;;2206725;67;1981;-65
2022/07/25 22:35:18;;;;;;;;;;;;;;;;;;2207349;67;1161;-65
2022/07/25 22:37:52;;;;;;;;;;;;;;;;;;2205590;59;2015;-65
2022/07/25 22:40:27;;;;;;;;;;;;;;;;;;2207595;67;1215;-65
2022/07/25 22:43:01;;;;;;;;;;;;;;;;;;2205778;67;1099;-63
2022/07/25 22:45:34;;;;;;;;;;;;;;;;;;2207914;67;1276;-64
2022/07/25 22:48:07;;;;;;;;;;;;;;;;;;2206949;67;1027;-64
2022/07/25 22:50:40;;;;;;;;;;;;;;;;;;2203288;59;1212;-65
2022/07/25 22:53:13;;;;;;;;;;;;;;;;;;2206820;67;1933;-65
2022/07/25 22:55:49;;;;;;;;;;;;;;;;;;2207421;67;1196;-65